createdAt,value
2022-10-03T00:00:10.733Z,51.10
2022-10-03T00:03:24.825Z,50.80
2022-10-03T00:06:27.316Z,50.70
2022-10-03T00:09:35.483Z,50.27
2022-10-03T00:12:50.221Z,50.33
2022-10-03T00:15:46.238Z,49.77
2022-10-03T00:18:48.134Z,48.63
2022-10-03T00:22:07.129Z,48.00
2022-10-03T00:25:23.760Z,47.37
2022-10-03T00:28:26.091Z,48.53
2022-10-03T00:31:22.858Z,49.70
2022-10-03T00:34:25.258Z,50.83
2022-10-03T00:37:26.708Z,51.50
2022-10-03T00:41:13.002Z,52.43
2022-10-03T00:44:37.870Z,54.23
2022-10-03T00:48:01.028Z,54.03
2022-10-03T00:51:05.832Z,53.50
2022-10-03T00:54:22.820Z,52.03
2022-10-03T00:57:42.767Z,52.73
2022-10-03T01:00:35.736Z,53.60
2022-10-03T01:03:46.853Z,53.47
2022-10-03T01:06:47.352Z,53.53
2022-10-03T01:09:51.746Z,53.17
2022-10-03T01:13:06.514Z,53.63
2022-10-03T01:16:08.817Z,54.00
2022-10-03T01:19:18.434Z,54.50
2022-10-03T01:22:31.983Z,54.67
2022-10-03T01:25:38.713Z,54.63
2022-10-03T01:29:06.550Z,55.13
2022-10-03T01:32:14.177Z,55.10
2022-10-03T01:35:18.465Z,55.83
2022-10-03T01:38:21.073Z,56.77
2022-10-03T01:41:16.753Z,56.00
2022-10-03T01:44:19.312Z,55.67
2022-10-03T01:47:22.939Z,55.83
2022-10-03T01:50:24.283Z,55.57
2022-10-03T01:53:26.973Z,56.37
2022-10-03T01:56:27.080Z,57.33
2022-10-03T01:59:31.413Z,56.43
2022-10-03T02:02:29.920Z,56.27
2022-10-03T02:05:38.350Z,57.30
2022-10-03T02:08:51.151Z,56.83
2022-10-03T02:11:59.419Z,57.13
2022-10-03T02:14:57.321Z,56.40
2022-10-03T02:17:58.139Z,56.07
2022-10-03T02:20:53.143Z,56.07
2022-10-03T02:23:52.481Z,56.43
2022-10-03T02:27:25.733Z,56.00
2022-10-03T02:30:39.180Z,56.97
2022-10-03T02:34:01.324Z,56.90
2022-10-03T02:37:28.606Z,57.93
2022-10-03T02:40:49.719Z,56.10
2022-10-03T02:44:15.279Z,55.07
2022-10-03T02:48:19.768Z,54.13
2022-10-03T02:51:43.245Z,53.57
2022-10-03T02:55:16.136Z,51.47
2022-10-03T02:58:46.406Z,50.93
2022-10-03T03:02:07.981Z,51.00
2022-10-03T03:05:36.528Z,49.27
2022-10-03T03:09:14.361Z,49.13
2022-10-03T03:12:59.086Z,49.23
2022-10-03T03:20:15.369Z,49.40
2022-10-03T03:23:32.583Z,48.77
2022-10-03T03:27:07.278Z,49.07
2022-10-03T03:30:10.067Z,48.10
2022-10-03T03:33:15.040Z,47.53
2022-10-03T03:36:12.143Z,46.50
2022-10-03T03:39:19.584Z,46.93
2022-10-03T03:42:31.336Z,46.17
2022-10-03T03:45:44.791Z,47.10
2022-10-03T03:48:54.315Z,47.00
2022-10-03T03:51:49.693Z,47.13
2022-10-03T03:55:04.091Z,46.77
2022-10-03T03:58:18.318Z,46.40
2022-10-03T04:01:39.180Z,46.90
2022-10-03T04:04:45.056Z,45.97
2022-10-03T04:07:55.408Z,45.80
2022-10-03T04:11:00.082Z,44.23
2022-10-03T04:14:30.147Z,43.47
2022-10-03T04:17:55.496Z,43.33
2022-10-03T04:21:07.835Z,44.03
2022-10-03T04:24:23.778Z,42.63
2022-10-03T04:27:32.958Z,42.50
2022-10-03T04:30:43.322Z,40.23
2022-10-03T04:33:43.453Z,40.83
2022-10-03T04:37:10.549Z,38.40
2022-10-03T04:40:19.305Z,37.23
2022-10-03T04:43:36.453Z,36.87
2022-10-03T04:46:35.566Z,35.97
2022-10-03T04:49:32.417Z,34.40
2022-10-03T04:52:36.708Z,34.07
2022-10-03T04:55:35.620Z,33.40
2022-10-03T04:58:43.528Z,33.30
2022-10-03T05:01:45.878Z,33.73
2022-10-03T05:04:42.946Z,32.73
2022-10-03T05:07:42.744Z,32.40
2022-10-03T05:10:50.868Z,31.33
2022-10-03T05:14:02.168Z,32.50
2022-10-03T05:17:06.468Z,30.87
2022-10-03T05:20:13.669Z,31.07
2022-10-03T05:23:16.456Z,31.87
2022-10-03T05:26:43.636Z,32.10
2022-10-03T05:29:38.118Z,30.60
2022-10-03T05:32:44.315Z,30.17
2022-10-03T05:36:00.793Z,30.47
2022-10-03T05:39:22.007Z,29.63
2022-10-03T05:42:42.423Z,29.17
2022-10-03T05:45:50.318Z,27.87
2022-10-03T05:48:52.476Z,27.17
2022-10-03T05:52:00.161Z,28.13
2022-10-03T05:55:18.777Z,28.53
2022-10-03T05:58:41.590Z,28.60
2022-10-03T06:02:07.005Z,27.40
2022-10-03T06:05:17.334Z,26.50
2022-10-03T06:08:49.790Z,24.83
2022-10-03T06:12:14.233Z,24.77
2022-10-03T06:15:28.554Z,24.77
2022-10-03T06:18:55.216Z,23.70
2022-10-03T06:22:21.953Z,23.67
2022-10-03T06:25:47.872Z,22.37
2022-10-03T06:29:22.903Z,23.27
2022-10-03T06:32:55.200Z,22.00
2022-10-03T06:36:30.795Z,21.40
2022-10-03T06:39:47.225Z,20.70
2022-10-03T06:43:07.523Z,21.23
2022-10-03T06:46:28.475Z,20.20
2022-10-03T06:49:36.683Z,19.90
2022-10-03T06:53:00.108Z,20.60
2022-10-03T06:56:39.482Z,19.43
2022-10-03T06:59:53.648Z,19.47
2022-10-03T07:03:21.275Z,18.40
2022-10-03T07:06:55.226Z,19.60
2022-10-03T07:10:27.239Z,19.93
2022-10-03T07:13:51.320Z,19.87
2022-10-03T07:17:23.910Z,19.23
2022-10-03T07:20:51.832Z,19.53
2022-10-03T07:24:08.278Z,20.37
2022-10-03T07:27:14.515Z,21.43
2022-10-03T07:30:17.223Z,21.03
2022-10-03T07:33:38.830Z,22.93
2022-10-03T07:37:07.773Z,25.17
2022-10-03T07:40:43.233Z,27.33
2022-10-03T07:44:14.489Z,29.37
2022-10-03T07:47:37.515Z,31.33
2022-10-03T07:50:54.199Z,32.33
2022-10-03T07:54:16.294Z,34.00
2022-10-03T07:57:25.105Z,33.13
2022-10-03T08:00:23.384Z,33.73
2022-10-03T08:03:48.655Z,32.10
2022-10-03T08:06:46.511Z,32.33
2022-10-03T08:09:57.665Z,31.00
2022-10-03T08:13:18.386Z,30.23
2022-10-03T08:16:25.295Z,29.60
2022-10-03T08:20:03.476Z,29.57
2022-10-03T08:23:09.233Z,29.00
2022-10-03T08:26:17.818Z,29.17
2022-10-03T08:29:32.302Z,29.53
2022-10-03T08:32:59.372Z,29.17
2022-10-03T08:36:18.940Z,29.50
2022-10-03T08:39:32.943Z,29.57
2022-10-03T08:42:47.884Z,31.50
2022-10-03T08:46:07.264Z,33.17
2022-10-03T08:49:28.233Z,33.70
2022-10-03T08:52:37.092Z,33.57
2022-10-03T08:56:00.190Z,33.50
2022-10-03T08:59:22.258Z,33.37
2022-10-03T09:03:28.347Z,33.50
2022-10-03T09:06:48.267Z,33.90
2022-10-03T09:10:10.374Z,33.27
2022-10-03T09:13:38.975Z,33.57
2022-10-03T09:17:07.322Z,30.07
2022-10-03T09:20:17.569Z,25.93
2022-10-03T09:24:02.164Z,22.87
2022-10-03T09:27:33.818Z,20.37
2022-10-03T09:30:39.589Z,18.60
2022-10-03T09:34:05.185Z,19.47
2022-10-03T09:37:33.558Z,19.63
2022-10-03T09:41:04.360Z,20.83
2022-10-03T09:44:39.782Z,20.37
2022-10-03T09:48:19.280Z,21.40
2022-10-03T09:51:22.792Z,21.33
2022-10-03T09:54:33.228Z,20.53
2022-10-03T09:57:47.101Z,19.87
2022-10-03T10:01:05.270Z,20.10
2022-10-03T10:04:50.553Z,20.70
2022-10-03T10:08:30.879Z,21.73
2022-10-03T10:11:35.390Z,21.93
2022-10-03T10:14:51.306Z,20.97
2022-10-03T10:18:12.208Z,20.53
2022-10-03T10:21:43.843Z,21.13
2022-10-03T10:25:20.367Z,22.10
2022-10-03T10:28:49.433Z,21.53
2022-10-03T10:32:16.614Z,21.23
2022-10-03T10:35:59.985Z,22.00
2022-10-03T10:39:36.467Z,22.00
2022-10-03T10:43:15.841Z,22.80
2022-10-03T10:46:34.718Z,23.10
2022-10-03T10:50:06.711Z,22.53
2022-10-03T10:53:33.267Z,20.77
2022-10-03T10:57:48.726Z,21.10
2022-10-03T11:01:05.681Z,22.90
2022-10-03T11:04:36.217Z,21.97
2022-10-03T11:08:04.643Z,21.60
2022-10-03T11:11:23.790Z,22.57
2022-10-03T11:14:36.404Z,23.13
2022-10-03T11:18:15.718Z,23.50
2022-10-03T11:21:49.524Z,24.40
2022-10-03T11:25:35.272Z,25.87
2022-10-03T11:29:18.073Z,27.40
2022-10-03T11:32:58.377Z,28.77
2022-10-03T11:36:32.375Z,29.47
2022-10-03T11:39:34.788Z,29.60
2022-10-03T11:42:35.104Z,29.27
2022-10-03T11:45:31.363Z,26.97
2022-10-03T11:48:42.575Z,26.67
2022-10-03T11:51:48.230Z,27.20
2022-10-03T11:54:49.311Z,26.67
2022-10-03T11:57:45.258Z,25.97
2022-10-03T12:00:37.982Z,26.70
2022-10-03T12:03:30.359Z,24.93
2022-10-03T12:06:55.089Z,23.13
2022-10-03T12:10:15.246Z,21.40
2022-10-03T12:13:11.105Z,19.77
2022-10-03T12:16:02.404Z,18.47
2022-10-03T12:18:57.174Z,17.03
2022-10-03T12:21:57.187Z,16.83
2022-10-03T12:24:47.515Z,15.63
2022-10-03T12:27:51.177Z,14.33
2022-10-03T12:30:49.515Z,13.87
2022-10-03T12:33:53.408Z,12.63
2022-10-03T12:36:53.391Z,12.30
2022-10-03T12:40:00.478Z,11.33
2022-10-03T12:43:19.277Z,9.80
2022-10-03T12:46:24.464Z,9.77
2022-10-03T12:49:23.605Z,9.33
2022-10-03T12:52:21.219Z,9.50
2022-10-03T12:55:25.374Z,9.80
2022-10-03T12:58:25.676Z,8.90
2022-10-03T13:01:30.702Z,9.00
2022-10-03T13:04:34.787Z,9.03
2022-10-03T13:07:39.565Z,8.63
2022-10-03T13:10:37.224Z,8.20
2022-10-03T13:13:45.343Z,7.70
2022-10-03T13:16:41.222Z,8.60
2022-10-03T13:19:44.709Z,9.67
2022-10-03T13:22:45.271Z,10.13
2022-10-03T13:25:40.152Z,9.90
2022-10-03T13:28:35.842Z,10.10
2022-10-03T13:31:31.301Z,10.20
2022-10-03T13:34:25.295Z,8.80
2022-10-03T13:37:27.253Z,7.17
2022-10-03T13:40:21.498Z,6.60
2022-10-03T13:43:14.862Z,5.87
2022-10-03T13:46:12.616Z,5.67
2022-10-03T13:49:12.130Z,5.70
2022-10-03T13:52:20.092Z,5.70
2022-10-03T13:55:52.865Z,5.30
2022-10-03T13:58:57.060Z,5.03
2022-10-03T14:02:00.561Z,4.97
2022-10-03T14:05:08.533Z,4.90
2022-10-03T14:08:10.839Z,4.80
2022-10-03T14:11:27.219Z,4.80
2022-10-03T14:14:47.035Z,5.23
2022-10-03T14:17:51.645Z,5.20
2022-10-03T14:21:21.235Z,5.70
2022-10-03T14:24:44.160Z,6.73
2022-10-03T14:27:52.624Z,6.17
2022-10-03T14:31:05.948Z,6.50
2022-10-03T14:34:11.115Z,7.13
2022-10-03T14:37:08.475Z,6.90
2022-10-03T14:40:13.264Z,7.40
2022-10-03T14:43:20.979Z,6.70
2022-10-03T14:46:18.400Z,6.80
2022-10-03T14:49:21.323Z,6.43
2022-10-03T14:52:36.593Z,5.63
2022-10-03T14:55:30.674Z,5.17
2022-10-03T14:58:24.009Z,5.03
2022-10-03T15:01:23.166Z,4.63
2022-10-03T15:04:24.989Z,4.60
2022-10-03T15:07:26.882Z,4.90
2022-10-03T15:10:22.911Z,4.80
2022-10-03T15:13:14.897Z,4.50
2022-10-03T15:16:07.374Z,5.10
2022-10-03T15:19:08.305Z,5.23
2022-10-03T15:22:10.429Z,5.10
2022-10-03T15:25:10.383Z,5.10
2022-10-03T15:28:05.266Z,5.37
2022-10-03T15:31:05.604Z,5.50
2022-10-03T15:34:02.141Z,4.80
2022-10-03T15:37:01.805Z,5.10
2022-10-03T15:43:09.427Z,5.13
2022-10-03T15:46:00.666Z,5.50
2022-10-03T15:48:56.053Z,5.80
2022-10-03T15:51:51.376Z,5.80
2022-10-03T15:54:48.544Z,6.27
2022-10-03T15:57:50.992Z,6.63
2022-10-03T16:00:48.624Z,7.63
2022-10-03T16:03:48.744Z,7.73
2022-10-03T16:06:49.664Z,7.97
2022-10-03T16:10:14.129Z,8.87
2022-10-03T16:13:19.003Z,9.60
2022-10-03T16:16:21.187Z,10.13
2022-10-03T16:19:28.751Z,11.20
2022-10-03T16:22:27.156Z,12.00
2022-10-03T16:25:27.145Z,12.40
2022-10-03T16:28:25.861Z,12.90
2022-10-03T16:31:27.008Z,13.53
2022-10-03T16:34:19.759Z,14.30
2022-10-03T16:37:21.197Z,15.00
2022-10-03T16:40:25.982Z,15.37
2022-10-03T16:43:34.181Z,17.03
2022-10-03T16:46:25.021Z,19.80
2022-10-03T16:49:49.088Z,20.40
2022-10-03T16:52:44.598Z,21.67
2022-10-03T16:55:39.946Z,22.50
2022-10-03T16:58:40.482Z,23.70
2022-10-03T17:01:44.982Z,24.80
2022-10-03T17:04:53.806Z,25.70
2022-10-03T17:07:50.364Z,26.93
2022-10-03T17:11:12.781Z,26.90
2022-10-03T17:14:07.957Z,28.20
2022-10-03T17:17:05.126Z,28.37
2022-10-03T17:20:00.891Z,27.90
2022-10-03T17:22:59.993Z,28.13
2022-10-03T17:25:59.979Z,27.90
2022-10-03T17:28:58.065Z,28.50
2022-10-03T17:32:00.146Z,27.83
2022-10-03T17:34:55.689Z,28.20
2022-10-03T17:38:30.837Z,28.13
2022-10-03T17:41:44.169Z,29.00
2022-10-03T17:45:00.173Z,28.13
2022-10-03T17:47:57.627Z,28.33
2022-10-03T17:51:02.740Z,28.77
2022-10-03T17:54:13.703Z,27.40
2022-10-03T17:57:13.766Z,27.73
2022-10-03T18:00:17.951Z,27.97
2022-10-03T18:06:46.979Z,27.60
2022-10-03T18:09:48.055Z,27.83
2022-10-03T18:12:44.807Z,27.70
2022-10-03T18:16:15.032Z,26.90
2022-10-03T18:19:33.086Z,28.30
2022-10-03T18:22:30.897Z,27.70
2022-10-03T18:26:08.070Z,27.03
2022-10-03T18:29:17.849Z,28.43
2022-10-03T18:32:15.907Z,27.63
2022-10-03T18:35:15.879Z,28.43
2022-10-03T18:38:18.233Z,28.10
2022-10-03T18:41:17.237Z,28.37
2022-10-03T18:44:07.637Z,28.43
2022-10-03T18:47:08.849Z,28.20
2022-10-03T18:50:10.445Z,26.00
2022-10-03T18:53:24.260Z,24.70
2022-10-03T18:56:16.683Z,25.47
2022-10-03T18:59:20.688Z,25.20
2022-10-03T19:02:20.261Z,23.70
2022-10-03T19:05:15.673Z,21.70
2022-10-03T19:08:12.470Z,20.30
2022-10-03T19:11:16.983Z,18.13
2022-10-03T19:14:14.141Z,19.27
2022-10-03T19:17:22.256Z,19.17
2022-10-03T19:20:26.379Z,19.50
2022-10-03T19:23:32.694Z,19.83
2022-10-03T19:26:26.659Z,21.30
2022-10-03T19:29:22.199Z,22.50
2022-10-03T19:32:23.629Z,24.07
2022-10-03T19:35:21.932Z,27.20
2022-10-03T19:38:19.201Z,30.03
2022-10-03T19:41:22.042Z,30.77
2022-10-03T19:44:21.788Z,31.53
2022-10-03T19:47:18.918Z,31.93
2022-10-03T19:50:21.127Z,32.00
2022-10-03T19:53:17.043Z,32.60
2022-10-03T19:56:16.104Z,34.23
2022-10-03T19:59:08.042Z,37.60
2022-10-03T20:01:59.760Z,40.60
2022-10-03T20:04:53.479Z,43.47
2022-10-03T20:07:51.867Z,45.27
2022-10-03T20:10:58.275Z,48.37
2022-10-03T20:14:00.087Z,51.73
2022-10-03T20:16:58.471Z,52.75
2022-10-03T20:19:56.519Z,53.73
2022-10-03T20:22:47.258Z,53.87
2022-10-03T20:25:41.740Z,54.07
2022-10-03T20:29:11.061Z,54.77
2022-10-03T20:32:03.082Z,54.77
2022-10-03T20:34:58.132Z,55.07
2022-10-03T20:37:51.322Z,54.13
2022-10-03T20:40:45.397Z,52.77
2022-10-03T20:43:42.428Z,52.33
2022-10-03T20:46:39.478Z,51.43
2022-10-03T20:49:49.320Z,50.20
2022-10-03T20:52:40.393Z,50.00
2022-10-03T20:55:33.548Z,48.00
2022-10-03T20:58:42.548Z,47.63
2022-10-03T21:01:44.166Z,47.83
2022-10-03T21:04:39.386Z,48.33
2022-10-03T21:07:38.924Z,47.90
2022-10-03T21:10:41.829Z,46.63
2022-10-03T21:13:35.747Z,46.07
2022-10-03T21:16:28.292Z,46.10
2022-10-03T21:19:24.581Z,43.83
2022-10-03T21:22:19.706Z,43.17
2022-10-03T21:25:22.289Z,42.23
2022-10-03T21:28:26.566Z,40.90
2022-10-03T21:31:31.305Z,38.93
2022-10-03T21:34:35.381Z,36.73
2022-10-03T21:37:34.920Z,37.43
2022-10-03T21:40:53.179Z,39.00
2022-10-03T21:43:53.130Z,41.37
2022-10-03T21:46:55.323Z,43.20
2022-10-03T21:49:57.670Z,44.20
2022-10-03T21:53:12.134Z,45.47
2022-10-03T21:56:19.402Z,46.43
2022-10-03T21:59:24.702Z,45.70
2022-10-03T22:02:23.366Z,43.80
2022-10-03T22:05:22.026Z,42.83
2022-10-03T22:08:28.284Z,43.17
2022-10-03T22:11:31.269Z,43.97
2022-10-03T22:14:31.472Z,44.30
2022-10-03T22:17:31.382Z,45.67
2022-10-03T22:20:33.585Z,47.03
2022-10-03T22:23:34.336Z,48.70
2022-10-03T22:26:33.046Z,47.17
2022-10-03T22:29:30.821Z,46.70
2022-10-03T22:32:27.892Z,45.63
2022-10-03T22:35:34.315Z,47.30
2022-10-03T22:38:27.789Z,48.33
2022-10-03T22:41:21.688Z,47.17
2022-10-03T22:44:16.699Z,48.03
2022-10-03T22:47:12.908Z,48.27
2022-10-03T22:50:14.114Z,48.93
2022-10-03T22:53:05.948Z,49.30
2022-10-03T22:56:01.166Z,48.87
2022-10-03T22:58:52.115Z,49.13
2022-10-03T23:01:50.786Z,49.97
2022-10-03T23:04:44.294Z,51.47
2022-10-03T23:07:52.752Z,51.43
2022-10-03T23:10:52.998Z,52.93
2022-10-03T23:13:44.254Z,54.30
2022-10-03T23:16:51.502Z,52.93
2022-10-03T23:19:56.479Z,54.30
2022-10-03T23:22:49.451Z,55.10
2022-10-03T23:26:03.006Z,55.13
2022-10-03T23:29:05.359Z,53.40
2022-10-03T23:31:59.441Z,51.67
2022-10-03T23:35:12.513Z,51.40
2022-10-03T23:38:01.873Z,50.53
2022-10-03T23:40:51.398Z,49.80
2022-10-03T23:43:50.064Z,51.17
2022-10-03T23:46:42.833Z,51.80
2022-10-03T23:49:34.650Z,52.77
2022-10-03T23:52:35.876Z,55.00
2022-10-03T23:55:29.854Z,54.97
2022-10-03T23:58:28.990Z,56.13
